Time;durP1;ratioP1;P1;durP2;ratioP2;P2;SDS_P1;SDS_P2;PMS_P1;PMS_P2;Temp;Humidity;BMP_temperature;BMP_pressure;BME280_temperature;BME280_humidity;BME280_pressure;Samples;Min_cycle;Max_cycle;Signal;HPM_P1;HPM_P2
2023/06/23 00:00:32;;;;;;;1.88;0.75;;;;;;;20.23;nan;96336.81;5097525;28;20203;-67
2023/06/23 00:02:58;;;;;;;0.50;0.40;;;;;;;20.29;nan;96335.09;5098171;28;20268;-67
2023/06/23 00:05:27;;;;;;;1.80;0.88;;;;;;;20.32;nan;96340.78;5099037;28;20195;-67
2023/06/23 00:07:53;;;;;;;0.57;0.57;;;;;;;20.34;nan;96337.84;5097247;28;20199;-67
2023/06/23 00:10:20;;;;;;;1.00;0.43;;;;;;;20.46;nan;96344.03;5097500;28;20199;-66
2023/06/23 00:12:48;;;;;;;1.38;0.50;;;;;;;20.54;nan;96349.81;5098513;28;20226;-67
2023/06/23 00:15:16;;;;;;;0.95;0.60;;;;;;;20.58;nan;96347.47;5098135;28;20203;-67
2023/06/23 00:17:46;;;;;;;0.85;0.73;;;;;;;20.50;nan;96347.84;5097420;28;20207;-67
2023/06/23 00:20:13;;;;;;;2.92;0.85;;;;;;;20.44;nan;96338.06;5098230;28;20569;-68
2023/06/23 00:22:41;;;;;;;1.10;0.68;;;;;;;20.54;nan;96349.81;5098031;28;20215;-66
2023/06/23 00:25:10;;;;;;;2.05;0.85;;;;;;;20.52;nan;96353.78;5097447;28;20289;-67
2023/06/23 00:27:36;;;;;;;1.02;0.60;;;;;;;20.47;nan;96348.34;5096748;28;20234;-66
2023/06/23 00:30:06;;;;;;;10.25;0.85;;;;;;;20.39;nan;96344.16;5097802;28;20286;-67
2023/06/23 00:32:33;;;;;;;4.15;1.10;;;;;;;20.20;nan;96339.97;5097760;28;20227;-67
2023/06/23 00:34:59;;;;;;;1.02;0.50;;;;;;;20.13;nan;96326.97;5097685;28;20214;-68
2023/06/23 00:37:26;;;;;;;1.20;0.68;;;;;;;20.05;nan;96322.75;5096930;28;20231;-67
2023/06/23 00:39:52;;;;;;;0.82;0.40;;;;;;;19.88;nan;96326.31;5097412;28;20228;-67
2023/06/23 00:42:19;;;;;;;3.08;1.40;;;;;;;19.90;nan;96321.56;5097258;28;20908;-66
2023/06/23 00:44:45;;;;;;;3.10;1.10;;;;;;;19.88;nan;96326.31;5097705;28;20199;-67
2023/06/23 00:47:15;;;;;;;1.52;0.88;;;;;;;19.62;nan;96332.91;5097395;28;20199;-66
2023/06/23 00:49:42;;;;;;;2.88;1.00;;;;;;;19.67;nan;96334.91;5097046;28;20295;-67
2023/06/23 00:52:08;;;;;;;1.13;0.70;;;;;;;19.77;nan;96345.88;5097099;28;20238;-67
2023/06/23 00:54:36;;;;;;;1.98;0.90;;;;;;;19.85;nan;96340.97;5097369;28;20207;-67
2023/06/23 00:57:03;;;;;;;1.35;0.80;;;;;;;19.97;nan;96349.88;5097078;28;20575;-67
2023/06/23 00:59:30;;;;;;;1.88;0.77;;;;;;;19.89;nan;96352.03;5096601;28;20211;-67
2023/06/23 01:01:58;;;;;;;2.03;1.33;;;;;;;20.02;nan;96355.34;5097285;28;20227;-66
2023/06/23 01:04:27;;;;;;;0.80;0.40;;;;;;;19.97;nan;96352.53;5096747;28;20541;-67
2023/06/23 01:07:00;;;;;;;1.85;0.98;;;;;;;20.08;nan;96346.38;5096928;28;20194;-66
2023/06/23 01:09:36;;;;;;;0.90;0.82;;;;;;;19.98;nan;96343.44;5096809;28;20207;-67
2023/06/23 01:12:11;;;;;;;0.73;0.70;;;;;;;19.96;nan;96344.72;5096883;28;20234;-67
2023/06/23 01:14:46;;;;;;;0.55;0.50;;;;;;;19.87;nan;96344.25;5097531;28;20202;-67
2023/06/23 01:17:20;;;;;;;1.70;0.85;;;;;;;19.79;nan;96338.41;5096528;28;20210;-67
2023/06/23 01:19:55;;;;;;;6.15;0.80;;;;;;;19.86;nan;96342.59;5095971;28;20199;-67
2023/06/23 01:22:31;;;;;;;1.33;0.65;;;;;;;19.67;nan;96345.63;5096985;28;21037;-67
2023/06/23 01:25:11;;;;;;;1.35;0.73;;;;;;;19.76;nan;96344.22;5097346;28;20203;-66
2023/06/23 01:27:59;;;;;;;0.93;0.47;;;;;;;19.80;nan;96330.16;5095655;28;20214;-67
2023/06/23 01:30:30;;;;;;;2.17;1.05;;;;;;;19.80;nan;96327.47;5096646;28;20203;-66
2023/06/23 01:33:07;;;;;;;1.17;0.82;;;;;;;19.72;nan;96327.03;5097145;28;20222;-67
2023/06/23 01:35:39;;;;;;;0.85;0.60;;;;;;;19.73;nan;96328.66;5096364;28;20213;-66
2023/06/23 01:38:12;;;;;;;4.60;1.33;;;;;;;19.76;nan;96329.00;5096230;28;20214;-67
2023/06/23 01:40:43;;;;;;;1.45;0.80;;;;;;;19.70;nan;96324.59;5097078;28;20202;-67
2023/06/23 01:43:12;;;;;;;0.95;0.55;;;;;;;19.74;nan;96325.75;5097041;28;20226;-66
2023/06/23 01:45:41;;;;;;;0.63;0.63;;;;;;;19.55;nan;96335.94;5096633;28;20656;-67
2023/06/23 01:48:11;;;;;;;0.43;0.40;;;;;;;19.57;nan;96329.31;5096535;28;20203;-67
2023/06/23 01:50:40;;;;;;;1.17;0.57;;;;;;;19.49;nan;96335.00;5096109;28;20210;-67
2023/06/23 01:53:08;;;;;;;1.40;0.57;;;;;;;19.36;nan;96337.88;5096528;28;20227;-68
2023/06/23 01:55:38;;;;;;;1.23;0.70;;;;;;;19.36;nan;96339.72;5096981;28;20210;-67
2023/06/23 01:58:04;;;;;;;2.20;0.63;;;;;;;19.17;nan;96338.16;5095339;28;20927;-67
2023/06/23 02:00:32;;;;;;;3.13;0.70;;;;;;;19.26;nan;96337.63;5096360;28;20582;-67
2023/06/23 02:03:02;;;;;;;1.27;0.70;;;;;;;19.57;nan;96341.88;5096730;28;20215;-67
2023/06/23 02:05:29;;;;;;;1.08;0.52;;;;;;;19.38;nan;96340.31;5096434;28;20302;-67
2023/06/23 02:07:58;;;;;;;0.77;0.40;;;;;;;19.33;nan;96348.22;5095791;28;20866;-67
2023/06/23 02:10:27;;;;;;;1.90;1.00;;;;;;;19.39;nan;96350.78;5096480;28;20206;-66
2023/06/23 02:12:55;;;;;;;1.65;0.77;;;;;;;19.49;nan;96347.53;5096396;28;21163;-67
2023/06/23 02:15:24;;;;;;;2.33;0.43;;;;;;;19.34;nan;96344.50;5096558;28;20195;-68
2023/06/23 02:17:54;;;;;;;1.40;0.73;;;;;;;19.35;nan;96351.47;5096095;28;20278;-67
2023/06/23 02:20:23;;;;;;;1.35;1.17;;;;;;;19.36;nan;96347.75;5096851;28;20218;-67
2023/06/23 02:22:51;;;;;;;1.90;0.95;;;;;;;19.49;nan;96347.53;5096251;28;20709;-67
2023/06/23 02:25:18;;;;;;;2.10;0.80;;;;;;;19.37;nan;96350.19;5096537;28;20199;-67
2023/06/23 02:27:46;;;;;;;2.90;1.20;;;;;;;19.30;nan;96352.16;5096137;28;20199;-67
2023/06/23 02:30:13;;;;;;;1.33;0.60;;;;;;;19.37;nan;96350.19;5096149;28;20199;-67
2023/06/23 02:32:40;;;;;;;2.88;1.10;;;;;;;19.21;nan;96350.84;5097179;28;20226;-67
2023/06/23 02:35:08;;;;;;;2.20;1.00;;;;;;;19.16;nan;96349.91;5100731;28;20207;-67
2023/06/23 02:37:40;;;;;;;1.10;0.93;;;;;;;19.15;nan;96351.75;5099287;28;20206;-66
2023/06/23 02:40:11;;;;;;;1.75;0.93;;;;;;;19.13;nan;96353.00;5099374;28;20210;-67
2023/06/23 02:42:42;;;;;;;1.10;0.55;;;;;;;19.12;nan;96356.75;5099378;28;20327;-67
2023/06/23 02:45:16;;;;;;;3.28;0.88;;;;;;;19.09;nan;96357.16;5100753;28;20580;-67
2023/06/23 02:47:45;;;;;;;1.70;0.70;;;;;;;19.03;nan;96371.41;5098595;28;20206;-66
2023/06/23 02:50:13;;;;;;;1.27;0.75;;;;;;;18.97;nan;96357.09;5099717;28;20210;-67
2023/06/23 02:52:45;;;;;;;1.00;0.68;;;;;;;19.03;nan;96360.75;5099719;28;20321;-67
2023/06/23 02:55:15;;;;;;;1.13;0.65;;;;;;;19.10;nan;96361.47;5099633;28;20497;-67
2023/06/23 02:57:43;;;;;;;1.70;0.95;;;;;;;18.90;nan;96370.75;5098573;28;20221;-67
2023/06/23 03:00:19;;;;;;;2.80;0.70;;;;;;;18.85;nan;96371.44;5099978;28;20203;-66
2023/06/23 03:02:48;;;;;;;1.77;0.90;;;;;;;18.79;nan;96377.69;5099340;28;20223;-67
2023/06/23 03:05:16;;;;;;;1.35;1.23;;;;;;;18.71;nan;96383.31;5099639;28;20208;-67
2023/06/23 03:07:44;;;;;;;2.72;0.73;;;;;;;18.72;nan;96376.13;5098819;28;20207;-67
2023/06/23 03:10:11;;;;;;;5.97;1.45;;;;;;;18.61;nan;96390.19;5099115;28;20199;-67
2023/06/23 03:12:37;;;;;;;1.10;0.95;;;;;;;18.62;nan;96376.66;5098980;28;20836;-67
2023/06/23 03:15:05;;;;;;;0.73;0.63;;;;;;;18.70;nan;96378.19;5099563;27;20218;-66
2023/06/23 03:17:34;;;;;;;2.42;1.10;;;;;;;18.73;nan;96381.22;5098789;28;20207;-67
2023/06/23 03:20:07;;;;;;;2.85;1.35;;;;;;;18.68;nan;96381.09;5098973;28;20207;-67
2023/06/23 03:22:39;;;;;;;3.00;0.93;;;;;;;18.65;nan;96372.72;5099315;28;20223;-66
2023/06/23 03:25:13;;;;;;;9.93;1.60;;;;;;;18.60;nan;96378.72;5099108;28;20215;-66
2023/06/23 03:27:42;;;;;;;2.00;0.90;;;;;;;18.48;nan;96385.84;5098637;28;20225;-67
2023/06/23 03:30:15;;;;;;;1.48;0.70;;;;;;;18.53;nan;96391.34;5099436;28;20268;-66
2023/06/23 03:32:44;;;;;;;1.38;0.90;;;;;;;18.38;nan;96398.88;5099111;28;20230;-66
2023/06/23 03:35:13;;;;;;;1.00;0.80;;;;;;;18.36;nan;96398.28;5099499;28;20199;-66
2023/06/23 03:37:44;;;;;;;1.17;0.95;;;;;;;18.26;nan;96405.16;5100751;28;20203;-67
2023/06/23 03:40:15;;;;;;;0.60;0.60;;;;;;;18.13;nan;96401.78;5100619;28;20211;-66
2023/06/23 03:42:47;;;;;;;1.85;1.17;;;;;;;18.11;nan;96403.84;5100482;28;20338;-67
2023/06/23 03:45:16;;;;;;;1.15;0.82;;;;;;;18.08;nan;96404.28;5102369;28;20203;-67
2023/06/23 03:47:46;;;;;;;3.10;1.25;;;;;;;17.99;nan;96414.41;5100114;28;20214;-66
2023/06/23 03:50:17;;;;;;;0.90;0.70;;;;;;;17.89;nan;96427.41;5099390;28;20242;-67
2023/06/23 03:52:45;;;;;;;1.27;0.70;;;;;;;17.97;nan;96419.16;5099194;28;20242;-67
2023/06/23 03:55:14;;;;;;;1.30;0.50;;;;;;;18.09;nan;96432.59;5100667;28;20210;-66
2023/06/23 03:57:43;;;;;;;1.55;0.90;;;;;;;18.06;nan;96425.00;5098286;28;20207;-65
2023/06/23 04:00:11;;;;;;;2.38;1.58;;;;;;;18.13;nan;96428.44;5101001;28;20213;-67
2023/06/23 04:02:40;;;;;;;1.35;0.95;;;;;;;18.07;nan;96434.66;5099231;28;20223;-66
2023/06/23 04:05:12;;;;;;;1.30;0.95;;;;;;;18.04;nan;96435.09;5099442;28;20198;-67
2023/06/23 04:07:40;;;;;;;4.75;1.00;;;;;;;17.92;nan;96431.47;5099389;28;20371;-66
2023/06/23 04:10:09;;;;;;;4.07;1.38;;;;;;;18.04;nan;96440.44;5099327;28;20195;-68
2023/06/23 04:12:38;;;;;;;0.80;0.77;;;;;;;18.09;nan;96438.72;5099857;28;20230;-66
2023/06/23 04:15:07;;;;;;;1.58;1.05;;;;;;;18.02;nan;96445.16;5099840;28;20215;-68
2023/06/23 04:17:35;;;;;;;1.40;1.02;;;;;;;17.98;nan;96457.28;5098959;28;20203;-67
2023/06/23 04:20:04;;;;;;;1.02;0.73;;;;;;;18.01;nan;96459.50;5098499;28;20207;-67
2023/06/23 04:22:31;;;;;;;1.35;0.60;;;;;;;17.85;nan;96463.53;5098233;28;20223;-66
2023/06/23 04:25:01;;;;;;;0.63;0.43;;;;;;;17.79;nan;96474.25;5098487;28;20210;-67
2023/06/23 04:27:30;;;;;;;0.80;0.57;;;;;;;17.82;nan;96481.81;5098579;28;20195;-68
2023/06/23 04:29:59;;;;;;;1.98;0.95;;;;;;;17.76;nan;96478.16;5098807;28;20207;-67
2023/06/23 04:32:26;;;;;;;0.82;0.55;;;;;;;17.85;nan;96489.38;5098330;28;20229;-69
2023/06/23 04:34:53;;;;;;;0.75;0.63;;;;;;;17.75;nan;96494.38;5098830;28;20219;-66
2023/06/23 04:37:24;;;;;;;1.95;1.00;;;;;;;17.93;nan;96491.78;5098010;28;20761;-68
2023/06/23 04:39:57;;;;;;;1.60;0.90;;;;;;;18.00;nan;96493.38;5098337;28;20203;-68
2023/06/23 04:42:27;;;;;;;0.98;0.93;;;;;;;18.08;nan;96500.28;5097869;28;20227;-68
2023/06/23 04:44:56;;;;;;;1.80;0.98;;;;;;;18.09;nan;96496.59;5097342;28;20207;-68
2023/06/23 04:47:29;;;;;;;0.95;0.82;;;;;;;18.24;nan;96494.44;5097044;28;20199;-69
2023/06/23 04:50:00;;;;;;;1.08;0.60;;;;;;;18.25;nan;96501.41;5097551;28;20199;-68
2023/06/23 04:52:29;;;;;;;2.10;1.27;;;;;;;18.00;nan;96508.56;5097784;28;20222;-68
2023/06/23 04:54:59;;;;;;;0.98;0.85;;;;;;;18.21;nan;96505.56;5096410;28;20229;-68
2023/06/23 04:57:30;;;;;;;2.42;1.23;;;;;;;18.18;nan;96522.00;5096401;28;20202;-68
2023/06/23 05:00:00;;;;;;;2.50;1.42;;;;;;;18.18;nan;96517.47;5097583;28;20211;-68
2023/06/23 05:02:31;;;;;;;2.10;1.30;;;;;;;18.16;nan;96529.38;5096991;28;20226;-68
2023/06/23 05:04:59;;;;;;;3.13;1.45;;;;;;;18.07;nan;96536.81;5097263;28;20680;-68
2023/06/23 05:07:28;;;;;;;1.92;1.00;;;;;;;18.05;nan;96538.03;5096787;28;20204;-71
2023/06/23 05:09:55;;;;;;;2.72;1.60;;;;;;;18.05;nan;96538.03;5097389;28;20203;-69
2023/06/23 05:12:24;;;;;;;3.17;2.05;;;;;;;18.05;nan;96532.72;5097597;28;20222;-69
2023/06/23 05:14:54;;;;;;;1.40;1.30;;;;;;;18.10;nan;96546.22;5097028;28;20225;-69
2023/06/23 05:17:23;;;;;;;3.45;2.10;;;;;;;18.07;nan;96544.00;5098235;28;20199;-69
2023/06/23 05:19:51;;;;;;;5.13;1.90;;;;;;;18.19;nan;96553.78;5096712;28;21013;-68
2023/06/23 05:22:22;;;;;;;8.68;2.40;;;;;;;18.21;nan;96548.25;5096243;28;20572;-69
2023/06/23 05:24:54;;;;;;;2.13;1.50;;;;;;;18.27;nan;96548.19;5097413;28;20214;-70
2023/06/23 05:27:23;;;;;;;3.65;1.85;;;;;;;18.12;nan;96554.84;5096735;28;20190;-67
2023/06/23 05:29:53;;;;;;;7.05;2.08;;;;;;;18.13;nan;96562.63;5096711;28;20198;-68
2023/06/23 05:32:20;;;;;;;4.00;1.77;;;;;;;17.99;nan;96560.25;5097115;28;20223;-67
2023/06/23 05:34:50;;;;;;;2.85;1.50;;;;;;;18.11;nan;96564.66;5096309;28;20227;-70
2023/06/23 05:37:20;;;;;;;3.97;1.73;;;;;;;18.27;nan;96569.53;5096082;28;20237;-70
2023/06/23 05:39:47;;;;;;;2.20;1.55;;;;;;;18.16;nan;96577.38;5096829;28;21080;-66
2023/06/23 05:42:14;;;;;;;4.07;2.03;;;;;;;18.10;nan;96584.41;5096883;28;20223;-66
2023/06/23 05:44:41;;;;;;;3.42;2.53;;;;;;;18.17;nan;96585.19;5096759;28;20225;-66
2023/06/23 05:47:11;;;;;;;3.72;2.63;;;;;;;18.33;nan;96594.53;5096469;28;20206;-67
2023/06/23 05:49:42;;;;;;;3.72;2.00;;;;;;;18.34;nan;96595.13;5096240;28;20663;-66
2023/06/23 05:52:14;;;;;;;3.70;2.17;;;;;;;18.59;nan;96601.31;5096328;28;20597;-66
2023/06/23 05:54:47;;;;;;;3.35;2.00;;;;;;;18.56;nan;96601.75;5096690;28;20222;-67
2023/06/23 05:57:22;;;;;;;5.30;2.22;;;;;;;18.64;nan;96600.66;5096389;28;20214;-67
2023/06/23 06:00:05;;;;;;;1.73;1.38;;;;;;;18.44;nan;96600.81;5097410;28;20207;-66
2023/06/23 06:02:35;;;;;;;2.17;1.50;;;;;;;18.43;nan;96604.53;5095984;28;20229;-66
2023/06/23 06:05:07;;;;;;;4.68;2.38;;;;;;;18.61;nan;96601.91;5096385;28;20238;-65
2023/06/23 06:07:36;;;;;;;4.82;2.10;;;;;;;18.51;nan;96606.91;5100449;28;20198;-66
2023/06/23 06:10:07;;;;;;;6.97;3.05;;;;;;;18.56;nan;96603.59;5100328;28;20626;-67
2023/06/23 06:12:35;;;;;;;6.30;2.80;;;;;;;18.68;nan;96610.69;5100090;28;20242;-66
2023/06/23 06:15:03;;;;;;;5.63;2.47;;;;;;;18.65;nan;96619.13;5100228;28;20223;-67
2023/06/23 06:17:33;;;;;;;2.05;1.73;;;;;;;18.88;nan;96622.03;5099727;28;20651;-66
2023/06/23 06:20:03;;;;;;;3.60;2.00;;;;;;;18.94;nan;96626.50;5100146;27;20909;-66
2023/06/23 06:22:33;;;;;;;3.95;2.28;;;;;;;18.90;nan;96624.47;5100702;27;20227;-66
2023/06/23 06:25:03;;;;;;;4.88;2.20;;;;;;;19.04;nan;96632.13;5100040;28;20249;-67
2023/06/23 06:27:33;;;;;;;5.68;2.17;;;;;;;19.13;nan;96637.03;5098078;28;20214;-66
2023/06/23 06:30:02;;;;;;;5.05;2.33;;;;;;;18.94;nan;96643.31;5099366;28;20206;-65
2023/06/23 06:32:33;;;;;;;3.17;1.90;;;;;;;18.97;nan;96650.09;5099207;28;20306;-66
2023/06/23 06:35:05;;;;;;;5.13;2.10;;;;;;;18.94;nan;96653.22;5098770;28;20223;-67
2023/06/23 06:37:34;;;;;;;4.30;2.08;;;;;;;19.00;nan;96660.31;5098700;28;20206;-66
2023/06/23 06:40:03;;;;;;;1.33;1.15;;;;;;;18.98;nan;96665.88;5098844;28;20318;-66
2023/06/23 06:42:31;;;;;;;3.60;2.10;;;;;;;18.93;nan;96667.59;5099152;28;20254;-67
2023/06/23 06:44:58;;;;;;;4.10;2.22;;;;;;;19.07;nan;96669.16;5102653;28;20203;-67
2023/06/23 06:47:25;;;;;;;5.72;2.60;;;;;;;19.03;nan;96674.06;5098202;28;20202;-66
2023/06/23 06:49:53;;;;;;;4.40;2.95;;;;;;;19.38;nan;96679.75;5098941;28;20214;-67
2023/06/23 06:52:21;;;;;;;5.40;2.92;;;;;;;19.38;nan;96682.44;5098809;28;20714;-67
2023/06/23 06:54:47;;;;;;;5.60;3.20;;;;;;;19.38;nan;96682.44;5099146;28;20262;-66
2023/06/23 06:57:14;;;;;;;5.90;2.47;;;;;;;19.33;nan;96677.72;5097574;28;20230;-67
2023/06/23 06:59:42;;;;;;;7.22;3.17;;;;;;;19.45;nan;96683.16;5098550;27;20207;-65
2023/06/23 07:02:10;;;;;;;4.20;2.85;;;;;;;19.42;nan;96687.09;5098394;28;20234;-65
2023/06/23 07:04:38;;;;;;;3.70;2.08;;;;;;;19.49;nan;96698.56;5098484;28;20221;-66
2023/06/23 07:07:05;;;;;;;5.13;3.13;;;;;;;19.32;nan;96704.69;5097634;28;20214;-65
2023/06/23 07:09:31;;;;;;;8.23;2.75;;;;;;;19.27;nan;96702.69;5098436;28;20599;-65
2023/06/23 07:11:58;;;;;;;5.18;2.53;;;;;;;19.50;nan;96708.22;5098603;28;20223;-66
2023/06/23 07:14:25;;;;;;;6.70;3.05;;;;;;;19.41;nan;96714.03;5097655;28;20719;-65
2023/06/23 07:16:54;;;;;;;5.47;2.63;;;;;;;19.48;nan;96710.28;5098458;28;20701;-66
2023/06/23 07:19:20;;;;;;;6.38;2.58;;;;;;;19.49;nan;96711.09;5097390;28;20200;-67
2023/06/23 07:21:47;;;;;;;4.25;2.10;;;;;;;19.48;nan;96717.50;5098783;27;20223;-66
2023/06/23 07:24:13;;;;;;;4.13;2.33;;;;;;;19.66;nan;96716.44;5098400;28;20210;-67
2023/06/23 07:26:40;;;;;;;4.35;2.65;;;;;;;19.88;nan;96717.69;5098818;28;20203;-67
2023/06/23 07:29:06;;;;;;;7.53;2.70;;;;;;;19.84;nan;96719.16;5097427;28;20234;-66
2023/06/23 07:31:35;;;;;;;3.75;1.90;;;;;;;20.20;nan;96730.72;5097689;28;20816;-67
2023/06/23 07:34:02;;;;;;;8.90;2.75;;;;;;;20.39;nan;96721.63;5098123;28;20199;-67
2023/06/23 07:36:29;;;;;;;6.55;2.30;;;;;;;20.44;nan;96731.63;5098119;28;20201;-66
2023/06/23 07:38:55;;;;;;;4.50;2.60;;;;;;;20.49;nan;96723.75;5097595;28;20210;-65
2023/06/23 07:41:22;;;;;;;4.60;2.30;;;;;;;20.53;nan;96723.06;5101308;28;20218;-67
2023/06/23 07:43:49;;;;;;;2.17;1.73;;;;;;;20.52;nan;96725.97;5097137;28;20203;-67
2023/06/23 07:46:16;;;;;;;6.32;2.97;;;;;;;20.62;nan;96726.22;5097435;28;20199;-66
2023/06/23 07:48:43;;;;;;;5.35;2.72;;;;;;;20.70;nan;96728.63;5097585;28;20199;-68
2023/06/23 07:51:11;;;;;;;8.13;2.97;;;;;;;20.76;nan;96725.03;5097293;28;20234;-67
2023/06/23 07:53:37;;;;;;;4.03;2.60;;;;;;;20.76;nan;96720.53;5097605;28;20686;-67
2023/06/23 07:56:04;;;;;;;4.95;2.33;;;;;;;20.62;nan;96721.72;5097571;27;20318;-67
2023/06/23 07:58:30;;;;;;;4.70;2.85;;;;;;;20.58;nan;96725.06;5096689;28;20765;-66
2023/06/23 08:00:57;;;;;;;6.30;3.15;;;;;;;20.92;nan;96717.19;5096920;28;20210;-67
2023/06/23 08:03:23;;;;;;;9.32;3.13;;;;;;;21.13;nan;96722.00;5097618;28;20225;-67
2023/06/23 08:05:50;;;;;;;6.57;2.38;;;;;;;21.03;nan;96727.13;5096895;28;21174;-67
2023/06/23 08:08:18;;;;;;;3.90;2.28;;;;;;;21.07;nan;96728.28;5096839;28;20674;-66
2023/06/23 08:10:45;;;;;;;2.83;1.75;;;;;;;20.67;nan;96729.88;5097735;28;20800;-66
2023/06/23 08:13:11;;;;;;;4.72;2.67;;;;;;;20.70;nan;96729.44;5097425;28;20233;-66
2023/06/23 08:15:37;;;;;;;3.22;2.22;;;;;;;20.92;nan;96733.25;5096056;28;20222;-67
2023/06/23 08:18:04;;;;;;;1.75;1.58;;;;;;;21.24;nan;96734.59;5096398;28;20199;-66
2023/06/23 08:20:30;;;;;;;5.85;2.92;;;;;;;21.23;nan;96735.66;5096282;28;20695;-67
2023/06/23 08:22:57;;;;;;;4.50;2.47;;;;;;;21.44;nan;96741.28;5095973;28;20718;-66
2023/06/23 08:25:25;;;;;;;2.53;2.33;;;;;;;21.45;nan;96740.25;5096349;28;20670;-66
2023/06/23 08:27:51;;;;;;;5.03;2.58;;;;;;;21.04;nan;96732.25;5095876;28;20286;-66
2023/06/23 08:30:26;;;;;;;11.20;2.17;;;;;;;21.13;nan;96741.59;5096115;28;20213;-66
2023/06/23 08:32:52;;;;;;;5.47;2.90;;;;;;;21.01;nan;96743.41;5096872;28;20227;-66
2023/06/23 08:35:19;;;;;;;3.85;1.77;;;;;;;21.16;nan;96746.47;5096441;28;20759;-67
2023/06/23 08:37:45;;;;;;;3.80;2.15;;;;;;;20.98;nan;96746.56;5096737;28;20211;-67
2023/06/23 08:40:13;;;;;;;4.00;1.58;;;;;;;20.97;nan;96758.31;5097823;28;20206;-67
2023/06/23 08:42:41;;;;;;;3.10;1.90;;;;;;;21.14;nan;96745.91;5096525;28;20219;-67
2023/06/23 08:45:09;;;;;;;5.50;2.40;;;;;;;20.96;nan;96751.34;5096985;28;20203;-68
2023/06/23 08:47:38;;;;;;;4.07;2.47;;;;;;;20.66;nan;96755.03;5097535;28;20214;-67
2023/06/23 08:50:06;;;;;;;6.13;2.70;;;;;;;20.69;nan;96756.44;5096217;27;20246;-67
2023/06/23 08:52:33;;;;;;;17.30;3.00;;;;;;;20.50;nan;96762.88;5097471;28;20407;-68
2023/06/23 08:55:02;;;;;;;2.80;1.92;;;;;;;20.44;nan;96761.91;5096388;28;20227;-67
2023/06/23 08:57:28;;;;;;;5.88;3.83;;;;;;;20.53;nan;96775.78;5095528;28;20199;-67
2023/06/23 08:59:57;;;;;;;3.97;1.83;;;;;;;20.44;nan;96772.63;5097463;28;20211;-67
2023/06/23 09:02:24;;;;;;;2.83;2.15;;;;;;;20.66;nan;96778.31;5098027;28;20602;-67
2023/06/23 09:04:50;;;;;;;3.58;2.22;;;;;;;21.04;nan;96785.00;5097020;28;20593;-67
2023/06/23 09:07:17;;;;;;;2.80;1.60;;;;;;;21.49;nan;96773.59;5096707;28;20206;-68
2023/06/23 09:09:45;;;;;;;3.97;2.08;;;;;;;21.34;nan;96775.88;5096734;28;20227;-67
2023/06/23 09:12:14;;;;;;;3.03;2.15;;;;;;;21.28;nan;96782.16;5095863;28;20337;-68
2023/06/23 09:14:43;;;;;;;2.97;1.75;;;;;;;21.16;nan;96793.91;5094924;28;20203;-66
2023/06/23 09:17:12;;;;;;;5.03;1.95;;;;;;;21.13;nan;96787.16;5096210;28;20214;-67
2023/06/23 09:19:39;;;;;;;3.88;1.80;;;;;;;21.18;nan;96792.66;5095957;28;20211;-67
2023/06/23 09:22:07;;;;;;;3.78;2.28;;;;;;;21.43;nan;96780.69;5097390;28;20259;-67
2023/06/23 09:24:40;;;;;;;4.88;1.92;;;;;;;21.84;nan;96777.13;5097604;28;20199;-67
2023/06/23 09:27:07;;;;;;;6.80;3.13;;;;;;;21.59;nan;96782.72;5096243;28;20199;-68
2023/06/23 09:29:35;;;;;;;6.90;2.22;;;;;;;21.86;nan;96791.94;5096557;28;20199;-67
2023/06/23 09:32:03;;;;;;;4.30;2.08;;;;;;;22.09;nan;96784.69;5095754;28;20635;-67
2023/06/23 09:34:34;;;;;;;5.40;2.83;;;;;;;22.25;nan;96786.69;5097386;28;21059;-67
2023/06/23 09:37:08;;;;;;;6.75;2.55;;;;;;;22.49;nan;96784.78;5096798;28;20278;-68
2023/06/23 09:39:35;;;;;;;2.20;1.50;;;;;;;21.89;nan;96796.84;5095871;28;20202;-68
2023/06/23 09:42:05;;;;;;;3.85;2.55;;;;;;;21.77;nan;96792.53;5100808;28;20250;-68
2023/06/23 09:44:34;;;;;;;3.08;1.52;;;;;;;21.61;nan;96793.22;5100973;28;20202;-67
2023/06/23 09:47:01;;;;;;;4.13;2.30;;;;;;;21.30;nan;96801.53;5100140;28;20207;-67
2023/06/23 09:49:28;;;;;;;1.65;1.52;;;;;;;21.12;nan;96811.50;5100231;28;20605;-67
2023/06/23 09:51:55;;;;;;;2.83;2.28;;;;;;;21.10;nan;96811.72;5101515;28;20869;-67
2023/06/23 09:54:33;;;;;;;5.13;2.38;;;;;;;21.08;nan;96816.50;5100982;28;20206;-67
2023/06/23 09:57:04;;;;;;;5.70;2.40;;;;;;;21.01;nan;96818.44;5101470;28;20218;-67
2023/06/23 09:59:31;;;;;;;3.80;2.35;;;;;;;20.69;nan;96818.84;5100462;28;20214;-67
2023/06/23 10:01:57;;;;;;;4.50;2.80;;;;;;;20.76;nan;96829.50;5100660;28;20223;-66
2023/06/23 10:04:28;;;;;;;5.10;2.58;;;;;;;20.93;nan;96818.75;5100473;28;20683;-67
2023/06/23 10:06:56;;;;;;;4.15;2.38;;;;;;;21.28;nan;96819.69;5100848;28;20195;-67
2023/06/23 10:09:24;;;;;;;6.05;1.67;;;;;;;21.43;nan;96810.19;5099695;28;20294;-66
2023/06/23 10:11:51;;;;;;;3.15;1.85;;;;;;;21.73;nan;96807.47;5101294;28;20223;-67
2023/06/23 10:14:18;;;;;;;3.00;2.22;;;;;;;21.80;nan;96811.66;5101042;28;20215;-66
2023/06/23 10:16:45;;;;;;;3.72;2.20;;;;;;;22.29;nan;96803.97;5100166;28;20223;-66
2023/06/23 10:19:12;;;;;;;4.15;2.53;;;;;;;22.84;nan;96802.44;5100050;28;20203;-67
2023/06/23 10:21:40;;;;;;;4.50;1.88;;;;;;;22.65;nan;96802.88;5100852;28;20226;-67
2023/06/23 10:24:11;;;;;;;1.63;1.52;;;;;;;22.47;nan;96811.88;5100379;28;20214;-67
2023/06/23 10:26:38;;;;;;;4.70;1.80;;;;;;;22.28;nan;96802.34;5101417;28;20209;-67
2023/06/23 10:29:08;;;;;;;3.85;2.22;;;;;;;22.71;nan;96808.09;5100708;27;20202;-67
2023/06/23 10:31:36;;;;;;;3.90;2.30;;;;;;;22.55;nan;96806.13;5099986;28;20227;-67
2023/06/23 10:34:06;;;;;;;3.00;1.60;;;;;;;22.92;nan;96812.81;5100858;28;20233;-67
2023/06/23 10:36:39;;;;;;;4.55;2.22;;;;;;;22.82;nan;96817.97;5100004;28;20227;-67
2023/06/23 10:39:10;;;;;;;3.05;1.60;;;;;;;22.70;nan;96818.00;5099382;28;20571;-67
2023/06/23 10:41:38;;;;;;;2.90;1.52;;;;;;;22.53;nan;96810.13;5100123;28;20242;-66
2023/06/23 10:44:05;;;;;;;2.97;1.88;;;;;;;22.25;nan;96813.53;5101296;28;20210;-68
2023/06/23 10:46:33;;;;;;;3.00;1.83;;;;;;;22.65;nan;96803.66;5101412;28;20786;-67
2023/06/23 10:49:00;;;;;;;2.90;2.05;;;;;;;23.26;nan;96806.50;5099455;28;20203;-67
2023/06/23 10:51:27;;;;;;;3.55;2.13;;;;;;;23.54;nan;96796.50;5099640;28;20214;-67
2023/06/23 10:53:58;;;;;;;3.50;1.90;;;;;;;24.04;nan;96806.22;5100622;28;20203;-67
2023/06/23 10:56:33;;;;;;;6.65;2.15;;;;;;;23.86;nan;96806.47;5101276;28;20251;-68
2023/06/23 10:59:00;;;;;;;4.30;2.67;;;;;;;23.72;nan;96804.38;5098977;28;20218;-66
2023/06/23 11:01:27;;;;;;;3.42;1.58;;;;;;;23.46;nan;96810.38;5099795;28;20225;-66
2023/06/23 11:03:57;;;;;;;2.50;2.00;;;;;;;22.90;nan;96801.50;5099579;28;20303;-66
2023/06/23 11:06:29;;;;;;;5.43;2.42;;;;;;;22.81;nan;96808.28;5100130;27;20191;-67
2023/06/23 11:08:57;;;;;;;4.93;1.40;;;;;;;22.70;nan;96809.16;5098691;28;20481;-67
2023/06/23 11:11:43;;;;;;;3.03;1.42;;;;;;;22.91;nan;96813.84;5099908;28;20302;-66
2023/06/23 11:14:15;;;;;;;1.80;1.13;;;;;;;22.79;nan;96815.78;5099550;28;20556;-65
2023/06/23 11:16:41;;;;;;;2.65;1.55;;;;;;;22.39;nan;96820.31;5101003;28;20211;-66
2023/06/23 11:19:09;;;;;;;2.30;1.48;;;;;;;22.18;nan;96807.44;5099287;28;20199;-67
2023/06/23 11:21:39;;;;;;;2.95;1.40;;;;;;;22.46;nan;96802.19;5099136;28;20234;-66
2023/06/23 11:24:19;;;;;;;3.35;1.90;;;;;;;22.90;nan;96806.88;5100340;27;20230;-67
2023/06/23 11:26:55;;;;;;;2.65;1.10;;;;;;;23.21;nan;96809.91;5099843;28;20203;-65
2023/06/23 11:29:23;;;;;;;3.08;1.65;;;;;;;23.25;nan;96815.63;5098109;28;20218;-67
2023/06/23 11:32:16;;;;;;;2.42;1.33;;;;;;;23.33;nan;96819.56;5099363;28;20772;-66
2023/06/23 11:34:50;;;;;;;2.15;1.20;;;;;;;23.13;nan;96812.16;5099591;28;20203;-65
2023/06/23 11:37:17;;;;;;;2.50;1.17;;;;;;;22.96;nan;96814.78;5098610;28;20226;-67
2023/06/23 11:39:44;;;;;;;2.55;1.30;;;;;;;22.89;nan;96802.53;5099465;28;20234;-66
2023/06/23 11:42:12;;;;;;;1.23;0.82;;;;;;;22.97;nan;96804.84;5099407;28;20215;-65
2023/06/23 11:44:39;;;;;;;1.40;0.98;;;;;;;22.73;nan;96814.03;5099238;28;20234;-66
2023/06/23 11:47:05;;;;;;;1.42;0.95;;;;;;;22.52;nan;96806.63;5098913;28;20207;-67
2023/06/23 11:49:32;;;;;;;3.70;1.40;;;;;;;22.64;nan;96823.53;5098894;28;20671;-67
2023/06/23 11:52:02;;;;;;;3.08;1.27;;;;;;;23.05;nan;96815.25;5097438;28;20792;-67
2023/06/23 11:54:31;;;;;;;1.15;1.02;;;;;;;23.12;nan;96824.00;5098624;28;20286;-66
2023/06/23 11:56:59;;;;;;;3.15;1.60;;;;;;;23.17;nan;96824.91;5099065;28;20276;-66
2023/06/23 11:59:27;;;;;;;2.63;1.05;;;;;;;22.85;nan;96817.53;5098021;28;20364;-67